createdAt,value
2018-10-11T00:03:59.823Z,100534.38
2018-10-11T00:09:04.724Z,100532.37
2018-10-11T00:14:08.511Z,100523.91
2018-10-11T00:19:12.096Z,100521.10
2018-10-11T00:24:15.904Z,100530.41
2018-10-11T00:29:19.447Z,100526.39
2018-10-11T00:34:30.339Z,100513.20
2018-10-11T00:39:33.877Z,100513.44
2018-10-11T00:44:37.451Z,100528.22
2018-10-11T00:49:41.022Z,100519.17
2018-10-11T00:54:44.567Z,100506.75
2018-10-11T00:59:48.509Z,100497.16
2018-10-11T01:04:52.071Z,100497.75
2018-10-11T01:09:55.709Z,100498.95
2018-10-11T01:14:59.331Z,100485.64
2018-10-11T01:20:02.906Z,100481.57
2018-10-11T01:25:06.394Z,100482.03
2018-10-11T01:30:11.666Z,100491.78
2018-10-11T01:35:15.265Z,100492.13
2018-10-11T01:40:18.846Z,100486.95
2018-10-11T01:45:22.482Z,100481.55
2018-10-11T01:50:26.406Z,100482.01
2018-10-11T01:55:30.078Z,100477.59
2018-10-11T02:00:33.872Z,100471.09
2018-10-11T02:05:37.417Z,100455.84
2018-10-11T02:10:41.167Z,100452.11
2018-10-11T02:15:44.740Z,100446.21
2018-10-11T02:20:48.501Z,100445.50
2018-10-11T02:25:52.069Z,100445.94
2018-10-11T02:30:55.692Z,100448.88
2018-10-11T02:35:59.236Z,100445.98
2018-10-11T02:41:02.842Z,100453.71
2018-10-11T02:46:06.542Z,100452.77
2018-10-11T02:51:10.098Z,100439.95
2018-10-11T02:56:13.966Z,100438.81
2018-10-11T03:01:17.958Z,100435.41
2018-10-11T03:06:21.569Z,100430.65
2018-10-11T03:11:25.504Z,100444.76
2018-10-11T03:16:36.116Z,100439.28
2018-10-11T03:21:39.720Z,100450.78
2018-10-11T03:26:43.258Z,100447.06
2018-10-11T03:31:46.897Z,100442.98
2018-10-11T03:36:50.738Z,100440.12
2018-10-11T03:41:54.656Z,100439.61
2018-10-11T03:46:58.251Z,100433.75
2018-10-11T03:52:01.819Z,100429.48
2018-10-11T03:57:05.371Z,100433.16
2018-10-11T04:02:09.046Z,100422.70
2018-10-11T04:07:12.690Z,100421.45
2018-10-11T04:12:21.242Z,100448.05
2018-10-11T04:17:24.794Z,100441.95
2018-10-11T04:22:28.351Z,100449.33
2018-10-11T04:27:31.878Z,100441.00
2018-10-11T04:32:35.477Z,100430.22
2018-10-11T04:37:39.019Z,100443.94
2018-10-11T04:42:42.632Z,100436.59
2018-10-11T04:47:46.256Z,100436.59
2018-10-11T04:52:49.890Z,100434.02
2018-10-11T04:57:53.520Z,100438.63
2018-10-11T05:02:57.151Z,100427.61
2018-10-11T05:08:00.769Z,100418.89
2018-10-11T05:13:04.700Z,100431.55
2018-10-11T05:18:08.335Z,100430.86
2018-10-11T05:23:11.997Z,100413.34
2018-10-11T05:28:15.595Z,100409.38
2018-10-11T05:33:19.456Z,100407.63
2018-10-11T05:38:23.402Z,100424.20
2018-10-11T05:43:27.766Z,100425.47
2018-10-11T05:48:33.094Z,100424.41
2018-10-11T05:53:36.679Z,100427.97
2018-10-11T05:58:40.320Z,100434.06
2018-10-11T06:03:45.087Z,100434.27
2018-10-11T06:08:48.735Z,100451.30
2018-10-11T06:13:52.334Z,100450.58
2018-10-11T06:18:55.962Z,100456.72
2018-10-11T06:23:59.517Z,100456.31
2018-10-11T06:29:03.215Z,100450.28
2018-10-11T06:34:07.029Z,100453.15
2018-10-11T06:39:11.135Z,100454.19
2018-10-11T06:44:14.758Z,100450.74
2018-10-11T06:49:18.422Z,100463.36
2018-10-11T06:54:22.095Z,100482.80
2018-10-11T06:59:25.627Z,100484.41
2018-10-11T07:04:29.219Z,100477.78
2018-10-11T07:09:32.766Z,100491.37
2018-10-11T07:14:36.348Z,100492.55
2018-10-11T07:19:39.946Z,100502.56
2018-10-11T07:24:43.588Z,100505.84
2018-10-11T07:29:47.155Z,100513.16
2018-10-11T07:34:50.776Z,100509.14
2018-10-11T07:39:54.272Z,100508.73
2018-10-11T07:44:57.900Z,100498.55
2018-10-11T07:50:01.529Z,100509.98
2018-10-11T07:55:05.100Z,100530.70
2018-10-11T08:00:12.754Z,100528.89
2018-10-11T08:05:16.373Z,100520.44
2018-10-11T08:10:19.934Z,100523.34
2018-10-11T08:15:23.499Z,100514.91
2018-10-11T08:20:28.600Z,100535.03
2018-10-11T08:25:32.503Z,100540.20
2018-10-11T08:30:35.842Z,100530.88
2018-10-11T08:35:39.406Z,100511.17
2018-10-11T08:40:42.959Z,100525.39
2018-10-11T08:45:46.660Z,100532.56
2018-10-11T08:50:50.423Z,100539.80
2018-10-11T08:55:53.928Z,100543.09
2018-10-11T09:00:57.728Z,100549.64
2018-10-11T09:06:01.397Z,100559.39
2018-10-11T09:11:04.992Z,100560.90
2018-10-11T09:16:08.462Z,100559.32
2018-10-11T09:21:11.997Z,100554.31
2018-10-11T09:26:15.562Z,100564.35
2018-10-11T09:31:19.111Z,100548.41
2018-10-11T09:36:22.781Z,100557.42
2018-10-11T09:41:26.302Z,100553.40
2018-10-11T09:46:29.924Z,100550.30
2018-10-11T09:51:33.483Z,100553.23
2018-10-11T09:57:17.931Z,100552.75
2018-10-11T10:02:22.001Z,100542.74
2018-10-11T10:07:25.711Z,100552.81
2018-10-11T10:12:29.232Z,100549.03
2018-10-11T10:17:32.810Z,100554.73
2018-10-11T10:22:36.418Z,100548.87
2018-10-11T10:27:39.955Z,100554.19
2018-10-11T10:32:43.657Z,100553.32
2018-10-11T10:37:47.234Z,100551.73
2018-10-11T10:42:50.778Z,100535.95
2018-10-11T10:47:54.375Z,100534.66
2018-10-11T10:52:58.161Z,100537.52
2018-10-11T10:58:01.852Z,100530.59
2018-10-11T11:03:05.387Z,100531.18
2018-10-11T11:08:08.939Z,100530.11
2018-10-11T11:13:12.550Z,100536.11
2018-10-11T11:18:16.078Z,100530.05
2018-10-11T11:23:19.733Z,100532.03
2018-10-11T11:28:23.483Z,100528.52
2018-10-11T11:33:27.050Z,100516.19
2018-10-11T11:38:30.637Z,100508.80
2018-10-11T11:43:34.307Z,100506.52
2018-10-11T11:48:37.867Z,100502.15
2018-10-11T11:53:42.372Z,100503.10
2018-10-11T11:58:47.882Z,100502.91
2018-10-11T12:03:51.486Z,100504.80
2018-10-11T12:08:55.013Z,100505.72
2018-10-11T12:13:58.552Z,100504.20
2018-10-11T12:19:02.195Z,100502.77
2018-10-11T12:24:05.817Z,100499.95
2018-10-11T12:29:09.386Z,100501.54
2018-10-11T12:34:13.150Z,100500.80
2018-10-11T12:39:16.698Z,100493.46
2018-10-11T12:44:20.340Z,100506.85
2018-10-11T12:49:23.944Z,100496.42
2018-10-11T12:54:27.411Z,100490.27
2018-10-11T12:59:30.981Z,100485.11
2018-10-11T13:04:34.522Z,100482.13
2018-10-11T13:09:38.052Z,100472.97
2018-10-11T13:14:41.611Z,100472.41
2018-10-11T13:19:45.158Z,100475.59
2018-10-11T13:24:49.450Z,100475.18
2018-10-11T13:29:53.040Z,100481.72
2018-10-11T13:34:56.583Z,100482.81
2018-10-11T13:40:00.124Z,100494.20
2018-10-11T13:45:03.814Z,100509.91
2018-10-11T13:50:07.427Z,100513.23
2018-10-11T13:55:13.057Z,100517.41
2018-10-11T14:00:26.517Z,100508.02
2018-10-11T14:05:30.015Z,100504.02
2018-10-11T14:10:33.624Z,100505.44
2018-10-11T14:15:37.157Z,100504.95
2018-10-11T14:20:40.699Z,100502.14
2018-10-11T14:25:44.219Z,100504.07
2018-10-11T14:30:47.818Z,100497.23
2018-10-11T14:35:51.483Z,100487.27
2018-10-11T14:40:55.144Z,100490.11
2018-10-11T14:45:58.698Z,100485.86
2018-10-11T14:51:02.348Z,100485.64
2018-10-11T14:56:05.914Z,100492.47
2018-10-11T15:01:09.455Z,100499.80
2018-10-11T15:06:13.526Z,100500.07
2018-10-11T15:11:17.098Z,100493.59
2018-10-11T15:16:20.658Z,100493.80
2018-10-11T15:21:24.230Z,100499.11
2018-10-11T15:26:27.759Z,100487.17
2018-10-11T15:31:31.318Z,100492.87
2018-10-11T15:36:34.944Z,100488.89
2018-10-11T15:41:38.860Z,100492.60
2018-10-11T15:46:42.944Z,100490.05
2018-10-11T15:51:46.641Z,100487.47
2018-10-11T15:56:51.358Z,100497.27
2018-10-11T16:01:54.984Z,100497.23
2018-10-11T16:06:58.530Z,100496.73
2018-10-11T16:12:02.213Z,100498.52
2018-10-11T16:17:05.832Z,100493.16
2018-10-11T16:22:09.423Z,100490.86
2018-10-11T16:27:13.043Z,100493.06
2018-10-11T16:32:16.927Z,100486.84
2018-10-11T16:37:20.439Z,100490.83
2018-10-11T16:42:24.111Z,100487.51
2018-10-11T16:47:27.820Z,100487.94
2018-10-11T16:52:31.395Z,100489.02
2018-10-11T16:57:35.294Z,100505.69
2018-10-11T17:02:39.073Z,100510.33
2018-10-11T17:07:42.713Z,100510.76
2018-10-11T17:12:46.706Z,100516.94
2018-10-11T17:17:50.311Z,100516.16
2018-10-11T17:22:53.965Z,100524.48
2018-10-11T17:27:57.624Z,100526.08
2018-10-11T17:33:01.294Z,100528.51
2018-10-11T17:38:04.920Z,100541.09
2018-10-11T17:43:08.506Z,100536.05
2018-10-11T17:48:12.112Z,100532.55
2018-10-11T17:53:15.757Z,100535.25
2018-10-11T17:58:19.404Z,100536.83
2018-10-11T18:03:23.020Z,100540.41
2018-10-11T18:08:26.976Z,100538.28
2018-10-11T18:13:31.018Z,100532.47
2018-10-11T18:18:34.796Z,100530.23
2018-10-11T18:23:38.374Z,100533.81
2018-10-11T18:28:42.063Z,100539.74
2018-10-11T18:33:45.587Z,100543.16
2018-10-11T18:38:49.147Z,100552.66
2018-10-11T18:43:53.580Z,100560.47
2018-10-11T18:48:57.254Z,100557.27
2018-10-11T18:54:00.848Z,100555.18
2018-10-11T18:59:04.433Z,100550.96
2018-10-11T19:04:08.121Z,100546.14
2018-10-11T19:09:11.703Z,100553.97
2018-10-11T19:14:15.400Z,100565.61
2018-10-11T19:19:19.125Z,100563.05
2018-10-11T19:24:22.916Z,100569.86
2018-10-11T19:29:26.515Z,100577.52
2018-10-11T19:34:30.083Z,100578.45
2018-10-11T19:39:34.660Z,100572.77
2018-10-11T19:44:38.369Z,100573.91
2018-10-11T19:49:42.514Z,100577.88
2018-10-11T19:54:46.208Z,100579.68
2018-10-11T19:59:49.810Z,100588.53
2018-10-11T20:04:53.471Z,100587.95
2018-10-11T20:09:57.454Z,100596.67
2018-10-11T20:15:01.808Z,100607.95
2018-10-11T20:20:05.679Z,100609.39
2018-10-11T20:25:09.684Z,100615.12
2018-10-11T20:30:15.320Z,100608.23
2018-10-11T20:35:19.027Z,100612.02
2018-10-11T20:40:22.694Z,100612.46
2018-10-11T20:45:26.312Z,100627.06
2018-10-11T20:50:29.887Z,100631.01
2018-10-11T20:55:33.436Z,100638.72
2018-10-11T21:00:37.403Z,100633.69
2018-10-11T21:05:40.974Z,100636.89
2018-10-11T21:10:44.981Z,100640.81
2018-10-11T21:15:48.825Z,100637.25
2018-10-11T21:20:52.479Z,100641.58
2018-10-11T21:25:56.142Z,100638.09
2018-10-11T21:30:59.739Z,100638.22
2018-10-11T21:36:03.307Z,100645.20
2018-10-11T21:41:06.904Z,100637.37
2018-10-11T21:46:10.467Z,100642.42
2018-10-11T21:51:14.050Z,100644.28
2018-10-11T21:56:17.663Z,100645.70
2018-10-11T22:01:22.687Z,100644.86
2018-10-11T22:06:26.234Z,100642.68
2018-10-11T22:11:29.865Z,100635.53
2018-10-11T22:16:33.642Z,100636.44
2018-10-11T22:21:37.514Z,100635.67
2018-10-11T22:26:41.077Z,100632.53
2018-10-11T22:31:44.625Z,100630.08
2018-10-11T22:36:48.248Z,100636.69
2018-10-11T22:41:51.791Z,100629.21
2018-10-11T22:46:55.415Z,100632.22
2018-10-11T22:51:59.169Z,100627.31
2018-10-11T22:57:02.855Z,100629.55
2018-10-11T23:02:06.557Z,100640.06
2018-10-11T23:07:10.506Z,100648.75
2018-10-11T23:12:14.094Z,100652.48
2018-10-11T23:17:17.701Z,100654.16
2018-10-11T23:22:21.254Z,100661.54
2018-10-11T23:27:24.844Z,100665.38
2018-10-11T23:32:28.409Z,100668.41
2018-10-11T23:37:31.940Z,100668.80
2018-10-11T23:42:35.519Z,100681.48
2018-10-11T23:47:39.131Z,100680.72
2018-10-11T23:52:42.654Z,100690.31
2018-10-11T23:57:46.261Z,100696.58
